createdAt,value
2022-09-06T00:00:30.377Z,0.00
2022-09-06T00:01:30.375Z,0.00
2022-09-06T00:02:30.417Z,0.00
2022-09-06T00:03:30.373Z,0.00
2022-09-06T00:04:30.427Z,0.00
2022-09-06T00:05:30.378Z,0.00
2022-09-06T00:06:30.378Z,0.00
2022-09-06T00:07:30.372Z,0.00
2022-09-06T00:08:30.382Z,0.00
2022-09-06T00:09:30.378Z,0.00
2022-09-06T00:10:30.381Z,0.00
2022-09-06T00:11:30.382Z,0.00
2022-09-06T00:12:30.384Z,0.00
2022-09-06T00:13:30.387Z,0.00
2022-09-06T00:14:30.388Z,0.00
2022-09-06T00:15:30.457Z,0.00
2022-09-06T00:16:30.652Z,0.00
2022-09-06T00:17:30.387Z,0.00
2022-09-06T00:18:30.394Z,0.00
2022-09-06T00:19:30.386Z,0.00
2022-09-06T00:20:30.390Z,0.00
2022-09-06T00:21:30.391Z,0.00
2022-09-06T00:22:30.391Z,0.00
2022-09-06T00:23:30.390Z,0.00
2022-09-06T00:24:30.393Z,0.00
2022-09-06T00:25:30.402Z,0.00
2022-09-06T00:26:30.399Z,0.00
2022-09-06T00:27:30.394Z,0.00
2022-09-06T00:28:30.396Z,0.00
2022-09-06T00:29:30.402Z,0.00
2022-09-06T00:30:30.405Z,0.00
2022-09-06T00:31:30.498Z,0.00
2022-09-06T00:32:30.400Z,0.00
2022-09-06T00:33:30.403Z,0.00
2022-09-06T00:34:30.402Z,0.00
2022-09-06T00:35:30.401Z,0.00
2022-09-06T00:36:30.405Z,0.00
2022-09-06T00:37:30.409Z,0.00
2022-09-06T00:38:30.408Z,0.00
2022-09-06T00:39:30.443Z,0.00
2022-09-06T00:40:30.413Z,0.00
2022-09-06T00:41:30.409Z,0.00
2022-09-06T00:42:30.412Z,0.00
2022-09-06T00:43:30.411Z,0.00
2022-09-06T00:44:30.411Z,0.00
2022-09-06T00:45:30.413Z,0.00
2022-09-06T00:46:30.469Z,0.00
2022-09-06T00:47:30.421Z,0.00
2022-09-06T00:48:30.417Z,0.00
2022-09-06T00:49:30.422Z,0.00
2022-09-06T00:50:30.416Z,0.00
2022-09-06T00:51:30.414Z,0.00
2022-09-06T00:52:30.425Z,0.00
2022-09-06T00:53:30.415Z,0.00
2022-09-06T00:54:30.423Z,0.00
2022-09-06T00:55:30.422Z,0.00
2022-09-06T00:56:30.423Z,0.00
2022-09-06T00:57:30.426Z,0.00
2022-09-06T00:58:30.421Z,0.00
2022-09-06T00:59:30.420Z,0.00
2022-09-06T01:00:30.438Z,0.00
2022-09-06T01:01:30.604Z,0.00
2022-09-06T01:02:30.558Z,0.00
2022-09-06T01:03:30.427Z,0.00
2022-09-06T01:04:30.428Z,0.00
2022-09-06T01:05:30.430Z,0.00
2022-09-06T01:06:30.430Z,0.00
2022-09-06T01:07:30.433Z,0.00
2022-09-06T01:08:30.429Z,0.00
2022-09-06T01:09:30.432Z,0.00
2022-09-06T01:10:30.437Z,0.00
2022-09-06T01:11:30.435Z,0.00
2022-09-06T01:12:30.432Z,0.00
2022-09-06T01:13:30.439Z,0.00
2022-09-06T01:14:30.439Z,0.00
2022-09-06T01:15:30.498Z,0.00
2022-09-06T01:16:30.440Z,0.00
2022-09-06T01:17:30.440Z,0.00
2022-09-06T01:18:30.444Z,0.00
2022-09-06T01:19:30.441Z,0.00
2022-09-06T01:20:30.444Z,0.00
2022-09-06T01:21:30.444Z,0.00
2022-09-06T01:22:30.446Z,0.00
2022-09-06T01:23:30.445Z,0.00
2022-09-06T01:24:30.446Z,0.00
2022-09-06T01:25:30.451Z,0.00
2022-09-06T01:26:30.449Z,0.00
2022-09-06T01:27:30.459Z,0.00
2022-09-06T01:28:30.447Z,0.00
2022-09-06T01:29:30.450Z,0.00
2022-09-06T01:30:30.452Z,0.00
2022-09-06T01:31:30.539Z,0.00
2022-09-06T01:32:30.452Z,0.00
2022-09-06T01:33:30.456Z,0.00
2022-09-06T01:34:30.456Z,0.00
2022-09-06T01:35:30.462Z,0.00
2022-09-06T01:36:30.458Z,0.00
2022-09-06T01:37:30.454Z,0.00
2022-09-06T01:38:30.463Z,0.00
2022-09-06T01:39:30.511Z,0.00
2022-09-06T01:40:30.463Z,0.00
2022-09-06T01:41:30.463Z,0.00
2022-09-06T01:42:30.459Z,0.00
2022-09-06T01:43:30.464Z,0.00
2022-09-06T01:44:30.463Z,0.00
2022-09-06T01:45:30.464Z,0.00
2022-09-06T01:46:30.508Z,0.00
2022-09-06T01:47:30.464Z,0.00
2022-09-06T01:48:30.467Z,0.00
2022-09-06T01:49:30.465Z,0.00
2022-09-06T01:50:30.470Z,0.00
2022-09-06T01:51:30.470Z,0.00
2022-09-06T01:52:30.472Z,0.00
2022-09-06T01:53:30.467Z,0.00
2022-09-06T01:54:30.467Z,0.00
2022-09-06T01:55:30.474Z,0.00
2022-09-06T01:56:30.472Z,0.00
2022-09-06T01:57:30.475Z,0.00
2022-09-06T01:58:30.478Z,0.00
2022-09-06T01:59:30.481Z,0.00
2022-09-06T02:00:30.475Z,0.00
2022-09-06T02:01:30.569Z,0.00
2022-09-06T02:02:30.516Z,0.00
2022-09-06T02:03:30.482Z,0.00
2022-09-06T02:04:30.480Z,0.00
2022-09-06T02:05:30.478Z,0.00
2022-09-06T02:06:30.484Z,0.00
2022-09-06T02:07:30.481Z,0.00
2022-09-06T02:08:30.485Z,0.00
2022-09-06T02:09:30.484Z,0.00
2022-09-06T02:10:30.480Z,0.00
2022-09-06T02:11:30.482Z,0.00
2022-09-06T02:12:30.490Z,0.00
2022-09-06T02:13:30.486Z,0.00
2022-09-06T02:14:30.483Z,0.00
2022-09-06T02:15:30.487Z,0.00
2022-09-06T02:16:30.531Z,0.00
2022-09-06T02:17:30.489Z,0.00
2022-09-06T02:18:30.486Z,0.00
2022-09-06T02:19:30.489Z,0.00
2022-09-06T02:20:30.493Z,0.00
2022-09-06T02:21:30.489Z,0.00
2022-09-06T02:22:30.491Z,0.00
2022-09-06T02:23:30.492Z,0.00
2022-09-06T02:24:30.491Z,0.00
2022-09-06T02:25:30.495Z,0.00
2022-09-06T02:26:30.498Z,0.00
2022-09-06T02:27:31.232Z,0.00
2022-09-06T02:28:30.498Z,0.00
2022-09-06T02:29:30.500Z,0.00
2022-09-06T02:30:30.517Z,0.00
2022-09-06T02:31:30.497Z,0.00
2022-09-06T02:32:30.499Z,0.00
2022-09-06T02:33:30.511Z,0.00
2022-09-06T02:34:30.498Z,0.00
2022-09-06T02:35:30.499Z,0.00
2022-09-06T02:36:30.502Z,0.00
2022-09-06T02:37:30.502Z,0.00
2022-09-06T02:38:30.517Z,0.00
2022-09-06T02:39:30.582Z,0.00
2022-09-06T02:40:30.504Z,0.00
2022-09-06T02:41:30.510Z,0.00
2022-09-06T02:42:30.504Z,0.00
2022-09-06T02:43:30.503Z,0.00
2022-09-06T02:44:30.505Z,0.00
2022-09-06T02:45:30.506Z,0.00
2022-09-06T02:46:30.574Z,0.00
2022-09-06T02:47:30.512Z,0.00
2022-09-06T02:48:30.508Z,0.00
2022-09-06T02:49:30.508Z,0.00
2022-09-06T02:50:30.509Z,0.00
2022-09-06T02:51:30.517Z,0.00
2022-09-06T02:52:30.514Z,0.00
2022-09-06T02:53:30.510Z,0.00
2022-09-06T02:54:30.515Z,0.00
2022-09-06T02:55:30.518Z,0.00
2022-09-06T02:56:30.515Z,0.00
2022-09-06T02:57:30.516Z,0.00
2022-09-06T02:58:30.510Z,0.00
2022-09-06T02:59:30.513Z,0.00
2022-09-06T03:00:30.514Z,0.00
2022-09-06T03:01:30.547Z,0.00
2022-09-06T03:02:30.536Z,0.00
2022-09-06T03:03:30.523Z,0.00
2022-09-06T03:04:30.519Z,0.00
2022-09-06T03:05:30.523Z,0.00
2022-09-06T03:06:30.525Z,0.00
2022-09-06T03:07:30.519Z,0.00
2022-09-06T03:08:30.521Z,0.00
2022-09-06T03:09:30.526Z,0.00
2022-09-06T03:10:30.527Z,0.00
2022-09-06T03:11:30.526Z,0.00
2022-09-06T03:12:30.525Z,0.00
2022-09-06T03:13:30.528Z,0.00
2022-09-06T03:14:30.531Z,0.00
2022-09-06T03:15:30.531Z,0.00
2022-09-06T03:16:30.576Z,0.00
2022-09-06T03:17:30.530Z,0.00
2022-09-06T03:18:30.526Z,0.00
2022-09-06T03:19:30.528Z,0.00
2022-09-06T03:20:35.040Z,0.00
2022-09-06T03:21:30.534Z,0.00
2022-09-06T03:22:30.527Z,0.00
2022-09-06T03:23:30.530Z,0.00
2022-09-06T03:24:30.531Z,0.00
2022-09-06T03:25:30.535Z,0.00
2022-09-06T03:26:30.535Z,0.00
2022-09-06T03:27:30.531Z,0.00
2022-09-06T03:28:30.535Z,0.00
2022-09-06T03:29:30.534Z,0.00
2022-09-06T03:30:30.590Z,0.00
2022-09-06T03:31:30.534Z,0.00
2022-09-06T03:32:30.542Z,0.00
2022-09-06T03:33:30.537Z,0.00
2022-09-06T03:34:30.545Z,0.00
2022-09-06T03:35:30.538Z,0.00
2022-09-06T03:36:30.543Z,0.00
2022-09-06T03:37:30.546Z,0.00
2022-09-06T03:38:30.538Z,0.00
2022-09-06T03:39:30.588Z,0.00
2022-09-06T03:40:30.540Z,0.00
2022-09-06T03:41:30.540Z,0.00
2022-09-06T03:42:30.542Z,0.00
2022-09-06T03:43:30.543Z,0.00
2022-09-06T03:44:30.539Z,0.00
2022-09-06T03:45:30.577Z,0.00
2022-09-06T03:46:30.544Z,0.00
2022-09-06T03:47:30.546Z,0.00
2022-09-06T03:48:30.547Z,0.00
2022-09-06T03:49:30.549Z,0.00
2022-09-06T03:50:30.546Z,0.00
2022-09-06T03:51:30.546Z,0.00
2022-09-06T03:52:30.548Z,0.00
2022-09-06T03:53:30.548Z,0.00
2022-09-06T03:54:30.551Z,0.00
2022-09-06T03:55:30.555Z,0.00
2022-09-06T03:56:30.546Z,0.00
2022-09-06T03:57:30.557Z,0.00
2022-09-06T03:58:30.550Z,0.00
2022-09-06T03:59:30.555Z,0.00
2022-09-06T04:00:30.548Z,0.00
2022-09-06T04:01:30.610Z,0.00
2022-09-06T04:02:30.631Z,0.00
2022-09-06T04:03:30.553Z,0.00
2022-09-06T04:04:30.552Z,0.00
2022-09-06T04:05:30.568Z,0.00
2022-09-06T04:06:30.558Z,0.00
2022-09-06T04:07:30.562Z,0.00
2022-09-06T04:08:30.554Z,0.00
2022-09-06T04:09:30.557Z,0.00
2022-09-06T04:10:30.560Z,0.00
2022-09-06T04:11:30.556Z,0.00
2022-09-06T04:12:30.558Z,0.00
2022-09-06T04:13:30.560Z,0.00
2022-09-06T04:14:30.562Z,0.00
2022-09-06T04:15:30.562Z,0.00
2022-09-06T04:16:30.590Z,0.00
2022-09-06T04:17:30.561Z,0.00
2022-09-06T04:18:30.688Z,0.00
2022-09-06T04:19:30.566Z,0.00
2022-09-06T04:20:30.567Z,5.63
2022-09-06T04:21:30.567Z,5.63
2022-09-06T04:22:30.565Z,5.63
2022-09-06T04:23:30.566Z,5.63
2022-09-06T04:24:30.567Z,5.63
2022-09-06T04:25:30.564Z,5.63
2022-09-06T04:26:30.564Z,5.63
2022-09-06T04:27:30.572Z,5.63
2022-09-06T04:28:30.567Z,5.63
2022-09-06T04:29:30.573Z,5.63
2022-09-06T04:30:30.568Z,5.63
2022-09-06T04:31:30.635Z,11.25
2022-09-06T04:32:30.571Z,11.25
2022-09-06T04:33:30.569Z,11.25
2022-09-06T04:34:30.897Z,11.25
2022-09-06T04:35:30.577Z,11.25
2022-09-06T04:36:30.572Z,11.25
2022-09-06T04:37:30.571Z,11.25
2022-09-06T04:38:30.576Z,16.88
2022-09-06T04:39:30.641Z,16.88
2022-09-06T04:40:30.571Z,16.88
2022-09-06T04:41:30.577Z,16.88
2022-09-06T04:42:30.576Z,16.88
2022-09-06T04:43:30.575Z,22.50
2022-09-06T04:44:30.579Z,22.50
2022-09-06T04:45:30.591Z,22.50
2022-09-06T04:46:30.577Z,28.13
2022-09-06T04:47:30.576Z,28.13
2022-09-06T04:48:30.583Z,28.13
2022-09-06T04:49:30.579Z,28.13
2022-09-06T04:50:30.578Z,28.13
2022-09-06T04:51:30.585Z,28.13
2022-09-06T04:52:30.581Z,28.13
2022-09-06T04:53:30.581Z,28.13
2022-09-06T04:54:30.580Z,33.75
2022-09-06T04:55:30.585Z,33.75
2022-09-06T04:56:30.582Z,33.75
2022-09-06T04:57:30.582Z,33.75
2022-09-06T04:58:30.581Z,39.38
2022-09-06T04:59:30.583Z,39.38
2022-09-06T05:00:30.583Z,45.00
2022-09-06T05:01:30.658Z,45.00
2022-09-06T05:02:30.620Z,45.00
2022-09-06T05:03:30.588Z,50.63
2022-09-06T05:04:30.589Z,50.63
2022-09-06T05:05:30.593Z,56.25
2022-09-06T05:06:30.588Z,61.88
2022-09-06T05:07:30.584Z,61.88
2022-09-06T05:08:30.590Z,67.50
2022-09-06T05:09:30.591Z,67.50
2022-09-06T05:10:30.587Z,73.13
2022-09-06T05:11:30.589Z,73.13
2022-09-06T05:12:30.588Z,78.75
2022-09-06T05:13:30.591Z,78.75
2022-09-06T05:14:30.593Z,78.75
2022-09-06T05:15:30.588Z,78.75
2022-09-06T05:16:30.671Z,78.75
2022-09-06T05:17:30.593Z,78.75
2022-09-06T05:18:30.888Z,78.75
2022-09-06T05:19:30.596Z,78.75
2022-09-06T05:20:30.593Z,84.38
2022-09-06T05:21:30.595Z,84.38
2022-09-06T05:22:30.607Z,90.00
2022-09-06T05:23:30.592Z,90.00
2022-09-06T05:24:30.600Z,95.63
2022-09-06T05:25:30.600Z,95.63
2022-09-06T05:26:30.595Z,95.63
2022-09-06T05:27:30.598Z,95.63
2022-09-06T05:28:30.600Z,101.25
2022-09-06T05:29:30.815Z,101.25
2022-09-06T05:30:30.603Z,101.25
2022-09-06T05:31:30.618Z,101.25
2022-09-06T05:32:30.601Z,101.25
2022-09-06T05:33:30.602Z,101.25
2022-09-06T05:34:30.608Z,101.25
2022-09-06T05:35:30.600Z,106.88
2022-09-06T05:36:30.602Z,106.88
2022-09-06T05:37:30.601Z,112.50
2022-09-06T05:38:30.871Z,118.13
2022-09-06T05:39:30.640Z,123.75
2022-09-06T05:40:30.604Z,129.38
2022-09-06T05:41:30.606Z,135.00
2022-09-06T05:42:30.605Z,135.00
2022-09-06T05:43:30.604Z,140.63
2022-09-06T05:44:30.609Z,140.63
2022-09-06T05:45:30.688Z,146.25
2022-09-06T05:46:30.612Z,140.63
2022-09-06T05:47:30.606Z,146.25
2022-09-06T05:48:36.030Z,146.25
2022-09-06T05:49:30.610Z,151.88
2022-09-06T05:50:30.610Z,157.50
2022-09-06T05:51:30.608Z,163.13
2022-09-06T05:52:30.609Z,168.75
2022-09-06T05:53:30.616Z,168.75
2022-09-06T05:54:30.612Z,168.75
2022-09-06T05:55:30.611Z,168.75
2022-09-06T05:56:30.612Z,163.13
2022-09-06T05:57:30.613Z,168.75
2022-09-06T05:58:30.609Z,168.75
2022-09-06T05:59:30.613Z,168.75
2022-09-06T06:00:30.615Z,168.75
2022-09-06T06:01:30.747Z,174.38
2022-09-06T06:02:30.678Z,174.38
2022-09-06T06:03:30.615Z,180.00
2022-09-06T06:04:30.624Z,180.00
2022-09-06T06:05:30.623Z,180.00
2022-09-06T06:06:30.616Z,180.00
2022-09-06T06:07:30.616Z,180.00
2022-09-06T06:08:30.619Z,185.63
2022-09-06T06:09:30.621Z,185.63
2022-09-06T06:10:30.624Z,180.00
2022-09-06T06:11:30.619Z,180.00
2022-09-06T06:12:30.621Z,174.38
2022-09-06T06:13:30.625Z,168.75
2022-09-06T06:14:30.627Z,174.38
2022-09-06T06:15:30.625Z,174.38
2022-09-06T06:16:30.688Z,180.00
2022-09-06T06:17:30.627Z,180.00
2022-09-06T06:18:30.625Z,185.63
2022-09-06T06:19:30.623Z,191.25
2022-09-06T06:20:30.665Z,196.88
2022-09-06T06:21:30.627Z,196.88
2022-09-06T06:22:30.628Z,196.88
2022-09-06T06:23:30.624Z,202.50
2022-09-06T06:24:30.625Z,202.50
2022-09-06T06:25:30.634Z,202.50
2022-09-06T06:26:30.628Z,208.13
2022-09-06T06:27:30.626Z,208.13
2022-09-06T06:28:30.632Z,208.13
2022-09-06T06:29:30.632Z,213.75
2022-09-06T06:30:30.631Z,208.13
2022-09-06T06:31:30.694Z,208.13
2022-09-06T06:32:30.632Z,208.13
2022-09-06T06:33:30.632Z,213.75
2022-09-06T06:34:30.635Z,225.00
2022-09-06T06:35:30.633Z,230.63
2022-09-06T06:36:30.642Z,236.25
2022-09-06T06:37:30.636Z,230.63
2022-09-06T06:38:30.640Z,253.13
2022-09-06T06:39:30.694Z,298.13
2022-09-06T06:40:30.641Z,315.00
2022-09-06T06:41:30.642Z,331.88
2022-09-06T06:42:30.640Z,354.38
2022-09-06T06:43:30.643Z,354.38
2022-09-06T06:44:30.641Z,348.75
2022-09-06T06:45:30.715Z,354.38
2022-09-06T06:46:30.642Z,360.00
2022-09-06T06:47:30.643Z,343.13
2022-09-06T06:48:30.647Z,354.38
2022-09-06T06:49:30.642Z,309.38
2022-09-06T06:50:30.645Z,371.25
2022-09-06T06:51:30.645Z,376.88
2022-09-06T06:52:30.645Z,331.88
2022-09-06T06:53:30.655Z,382.50
2022-09-06T06:54:30.648Z,388.13
2022-09-06T06:55:30.649Z,371.25
2022-09-06T06:56:30.651Z,382.50
2022-09-06T06:57:30.650Z,388.13
2022-09-06T06:58:30.657Z,360.00
2022-09-06T06:59:30.656Z,371.25
2022-09-06T07:00:30.654Z,410.63
2022-09-06T07:01:30.819Z,410.63
2022-09-06T07:02:30.657Z,371.25
2022-09-06T07:03:30.657Z,399.38
2022-09-06T07:04:30.659Z,337.50
2022-09-06T07:07:30.989Z,495.00
2022-09-06T07:08:30.666Z,517.50
2022-09-06T07:11:30.664Z,461.25
2022-09-06T07:12:30.673Z,506.25
2022-09-06T07:13:30.667Z,489.38
2022-09-06T07:14:30.675Z,517.50
2022-09-06T07:15:30.668Z,506.25
2022-09-06T07:16:30.730Z,523.13
2022-09-06T07:17:30.677Z,545.63
2022-09-06T07:18:30.678Z,545.63
2022-09-06T07:20:30.990Z,545.63
2022-09-06T07:21:38.172Z,540.00
2022-09-06T07:22:30.683Z,511.88
2022-09-06T07:24:30.692Z,545.63
2022-09-06T07:25:30.694Z,601.88
2022-09-06T07:26:30.692Z,607.50
2022-09-06T07:28:30.694Z,613.13
2022-09-06T07:29:30.692Z,607.50
2022-09-06T07:30:30.695Z,489.38
2022-09-06T07:32:30.703Z,534.38
2022-09-06T07:33:30.705Z,635.63
2022-09-06T07:34:30.710Z,646.88
2022-09-06T07:35:30.706Z,646.88
2022-09-06T07:36:30.711Z,669.38
2022-09-06T07:37:30.716Z,680.63
2022-09-06T07:38:30.719Z,641.25
2022-09-06T07:39:30.746Z,596.25
2022-09-06T07:40:30.721Z,596.25
2022-09-06T07:41:30.721Z,630.00
2022-09-06T07:42:35.667Z,635.63
2022-09-06T07:43:30.730Z,669.38
2022-09-06T07:44:30.729Z,646.88
2022-09-06T07:45:30.729Z,697.50
2022-09-06T07:46:30.799Z,708.75
2022-09-06T07:48:30.743Z,725.63
2022-09-06T07:49:34.710Z,725.63
2022-09-06T07:50:46.417Z,686.25
2022-09-06T07:51:30.749Z,646.88
2022-09-06T07:53:31.410Z,663.75
2022-09-06T07:54:31.435Z,669.38
2022-09-06T07:55:30.772Z,652.50
2022-09-06T07:56:30.766Z,669.38
2022-09-06T07:57:30.775Z,675.00
2022-09-06T07:58:30.771Z,686.25
2022-09-06T07:59:30.775Z,691.88
2022-09-06T08:00:30.781Z,725.63
2022-09-06T08:01:30.871Z,731.25
2022-09-06T08:02:30.832Z,720.00
2022-09-06T08:03:30.787Z,697.50
2022-09-06T08:04:30.790Z,725.63
2022-09-06T08:06:31.313Z,1046.25
2022-09-06T08:09:00.407Z,1445.63
2022-09-06T08:09:30.810Z,1479.38
2022-09-06T08:10:30.820Z,1366.88
2022-09-06T08:11:30.816Z,1243.13
2022-09-06T08:12:30.822Z,1198.13
2022-09-06T08:13:30.829Z,1074.38
2022-09-06T08:14:30.830Z,1113.75
2022-09-06T08:15:30.830Z,1192.50
2022-09-06T08:16:30.911Z,1001.25
2022-09-06T08:17:30.841Z,1091.25
2022-09-06T08:18:30.845Z,1243.13
2022-09-06T08:19:30.846Z,1096.88
2022-09-06T08:20:30.855Z,950.63
2022-09-06T08:21:30.853Z,1113.75
2022-09-06T08:22:30.861Z,1338.75
2022-09-06T08:23:30.865Z,1046.25
2022-09-06T08:24:30.865Z,967.50
2022-09-06T08:25:30.877Z,995.63
2022-09-06T08:26:30.880Z,894.38
2022-09-06T08:27:30.875Z,871.88
2022-09-06T08:28:30.886Z,804.38
2022-09-06T08:29:30.887Z,849.38
2022-09-06T08:30:30.895Z,832.50
2022-09-06T08:31:30.961Z,832.50
2022-09-06T08:32:30.903Z,894.38
2022-09-06T08:33:30.904Z,866.25
2022-09-06T08:34:30.911Z,821.25
2022-09-06T08:35:30.911Z,826.88
2022-09-06T08:36:30.918Z,855.00
2022-09-06T08:37:30.927Z,871.88
2022-09-06T08:38:30.929Z,888.75
2022-09-06T08:39:31.004Z,928.13
2022-09-06T08:40:30.935Z,866.25
2022-09-06T08:41:30.941Z,838.13
2022-09-06T08:42:30.945Z,849.38
2022-09-06T08:43:30.948Z,838.13
2022-09-06T08:45:30.960Z,967.50
2022-09-06T08:46:31.020Z,1366.88
2022-09-06T08:47:30.972Z,1456.88
2022-09-06T08:48:30.974Z,1856.25
2022-09-06T08:49:30.980Z,2210.63
2022-09-06T08:50:30.984Z,2064.38
2022-09-06T08:51:33.290Z,1828.13
2022-09-06T08:52:30.991Z,1580.63
2022-09-06T08:53:30.998Z,1316.25
2022-09-06T08:54:31.004Z,1113.75
2022-09-06T08:55:34.054Z,1051.88
2022-09-06T08:56:31.008Z,1226.25
2022-09-06T09:10:31.210Z,1423.13
2022-09-06T09:11:31.225Z,1580.63
2022-09-06T09:12:31.169Z,1333.13
2022-09-06T09:13:31.164Z,1153.13
2022-09-06T09:14:31.231Z,1085.63
2022-09-06T09:15:31.221Z,1085.63
2022-09-06T09:16:31.299Z,1051.88
2022-09-06T09:17:31.195Z,1170.00
2022-09-06T09:18:31.160Z,1119.38
2022-09-06T09:19:31.257Z,1091.25
2022-09-06T09:20:31.195Z,1282.50
2022-09-06T09:21:31.449Z,1850.63
2022-09-06T09:22:31.228Z,1906.88
2022-09-06T09:23:31.297Z,2756.25
2022-09-06T09:24:31.384Z,2345.63
2022-09-06T09:25:31.298Z,1608.75
2022-09-06T09:26:31.567Z,1940.63
2022-09-06T09:27:31.303Z,1552.50
2022-09-06T09:28:31.966Z,1473.75
2022-09-06T09:29:36.113Z,1406.25
2022-09-06T09:30:47.291Z,1867.50
2022-09-06T09:31:31.812Z,1468.13
2022-09-06T09:32:31.313Z,1254.38
2022-09-06T09:33:31.604Z,1659.38
2022-09-06T09:34:31.401Z,1665.00
2022-09-06T09:35:31.335Z,1456.88
2022-09-06T09:36:31.457Z,1546.88
2022-09-06T09:37:47.150Z,1428.75
2022-09-06T09:38:31.355Z,1271.25
2022-09-06T09:39:31.422Z,1878.75
2022-09-06T09:40:31.466Z,2368.13
2022-09-06T09:41:31.490Z,2345.63
2022-09-06T09:42:31.403Z,2750.63
2022-09-06T09:43:31.483Z,3217.50
2022-09-06T09:44:31.381Z,3234.38
2022-09-06T09:45:31.458Z,2745.00
2022-09-06T09:46:31.741Z,1715.63
2022-09-06T09:47:31.538Z,2148.75
2022-09-06T09:48:31.460Z,2486.25
2022-09-06T09:49:31.436Z,1687.50
2022-09-06T09:50:31.494Z,1569.38
2022-09-06T09:51:31.549Z,1445.63
2022-09-06T09:52:32.100Z,1299.38
2022-09-06T09:53:32.300Z,1490.63
2022-09-06T09:54:31.549Z,2199.38
2022-09-06T09:55:32.247Z,3127.50
2022-09-06T09:56:31.584Z,2705.63
2022-09-06T09:57:31.562Z,1715.63
2022-09-06T09:58:31.544Z,1513.13
2022-09-06T09:59:31.788Z,1788.75
2022-09-06T10:00:31.667Z,1141.88
2022-09-06T10:01:31.992Z,1040.63
2022-09-06T10:02:31.577Z,1085.63
2022-09-06T10:03:31.835Z,956.25
2022-09-06T10:04:46.955Z,781.88
2022-09-06T10:05:31.637Z,753.75
2022-09-06T10:07:31.611Z,731.25
2022-09-06T10:08:31.768Z,714.38
2022-09-06T10:09:31.630Z,725.63
2022-09-06T10:10:31.871Z,742.50
2022-09-06T10:11:31.957Z,781.88
2022-09-06T10:12:31.743Z,826.88
2022-09-06T10:13:31.728Z,843.75
2022-09-06T10:14:31.672Z,860.63
2022-09-06T10:15:31.669Z,855.00
2022-09-06T10:16:31.803Z,877.50
2022-09-06T10:17:31.741Z,945.00
2022-09-06T10:18:31.883Z,1355.63
2022-09-06T10:19:31.748Z,2036.25
2022-09-06T10:20:31.735Z,1946.25
2022-09-06T10:21:32.237Z,1957.50
2022-09-06T10:22:31.718Z,1378.13
2022-09-06T10:24:31.848Z,1119.38
2022-09-06T10:25:31.750Z,1186.88
2022-09-06T10:26:31.804Z,995.63
2022-09-06T10:27:31.757Z,860.63
2022-09-06T10:28:31.803Z,781.88
2022-09-06T10:29:31.756Z,742.50
2022-09-06T10:30:31.827Z,736.88
2022-09-06T10:31:31.892Z,725.63
2022-09-06T10:32:31.854Z,742.50
2022-09-06T10:33:31.901Z,686.25
2022-09-06T10:34:31.809Z,675.00
2022-09-06T10:35:31.813Z,663.75
2022-09-06T10:36:31.896Z,618.75
2022-09-06T10:37:31.890Z,613.13
2022-09-06T10:38:31.850Z,613.13
2022-09-06T10:39:31.932Z,601.88
2022-09-06T10:40:31.886Z,573.75
2022-09-06T10:41:31.876Z,517.50
2022-09-06T10:42:31.873Z,483.75
2022-09-06T10:43:31.870Z,461.25
2022-09-06T10:44:31.961Z,450.00
2022-09-06T10:45:32.078Z,433.13
2022-09-06T10:47:31.908Z,410.63
2022-09-06T10:48:32.135Z,405.00
2022-09-06T10:49:31.935Z,399.38
2022-09-06T10:50:31.906Z,399.38
2022-09-06T10:51:31.923Z,399.38
2022-09-06T10:52:31.933Z,399.38
2022-09-06T10:53:31.917Z,410.63
2022-09-06T10:54:31.990Z,421.88
2022-09-06T10:55:31.957Z,433.13
2022-09-06T10:56:31.981Z,444.38
2022-09-06T11:00:32.096Z,489.38
2022-09-06T11:01:32.232Z,506.25
2022-09-06T11:02:32.134Z,523.13
2022-09-06T11:04:32.263Z,545.63
2022-09-06T11:05:39.301Z,551.25
2022-09-06T11:06:32.018Z,556.88
2022-09-06T11:07:32.488Z,562.50
2022-09-06T11:08:48.093Z,568.13
2022-09-06T11:09:32.062Z,573.75
2022-09-06T11:10:32.070Z,573.75
2022-09-06T11:11:32.151Z,562.50
2022-09-06T11:12:32.059Z,562.50
2022-09-06T11:13:32.048Z,568.13
2022-09-06T11:14:32.060Z,579.38
2022-09-06T11:15:32.069Z,590.63
2022-09-06T11:16:32.083Z,607.50
2022-09-06T11:17:32.180Z,624.38
2022-09-06T11:18:32.638Z,635.63
2022-09-06T11:19:32.103Z,646.88
2022-09-06T11:20:32.426Z,658.13
2022-09-06T11:21:32.286Z,725.63
2022-09-06T11:22:32.204Z,714.38
2022-09-06T11:23:32.198Z,691.88
2022-09-06T11:24:32.245Z,675.00
2022-09-06T11:25:32.304Z,691.88
2022-09-06T11:26:32.818Z,714.38
2022-09-06T11:27:33.399Z,748.13
2022-09-06T11:28:33.085Z,770.63
2022-09-06T11:29:32.307Z,810.00
2022-09-06T11:30:32.807Z,770.63
2022-09-06T11:32:32.941Z,793.13
2022-09-06T11:33:32.786Z,821.25
2022-09-06T11:34:32.343Z,838.13
2022-09-06T11:35:32.561Z,849.38
2022-09-06T11:36:32.793Z,922.50
2022-09-06T11:37:32.856Z,1068.75
2022-09-06T11:38:32.593Z,849.38
2022-09-06T11:40:32.394Z,911.25
2022-09-06T11:41:32.433Z,838.13
2022-09-06T11:42:32.508Z,810.00
2022-09-06T11:43:32.194Z,753.75
2022-09-06T11:44:32.363Z,703.13
2022-09-06T11:45:32.322Z,652.50
2022-09-06T11:46:32.727Z,607.50
2022-09-06T11:47:32.866Z,573.75
2022-09-06T11:48:32.642Z,545.63
2022-09-06T11:49:33.179Z,517.50
2022-09-06T11:50:32.632Z,489.38
2022-09-06T11:51:32.478Z,472.50
2022-09-06T11:52:32.465Z,455.63
2022-09-06T11:53:32.529Z,444.38
2022-09-06T11:54:32.339Z,427.50
2022-09-06T11:55:32.771Z,416.25
2022-09-06T11:56:32.437Z,405.00
2022-09-06T11:57:32.614Z,388.13
2022-09-06T11:58:32.345Z,382.50
2022-09-06T11:59:32.302Z,376.88
2022-09-06T12:00:32.519Z,365.63
2022-09-06T12:01:32.964Z,360.00
2022-09-06T12:02:32.791Z,360.00
2022-09-06T12:04:33.246Z,354.38
2022-09-06T12:05:32.349Z,360.00
2022-09-06T12:06:32.372Z,365.63
2022-09-06T12:07:32.498Z,371.25
2022-09-06T12:08:32.369Z,365.63
2022-09-06T12:09:32.771Z,360.00
2022-09-06T12:10:32.587Z,354.38
2022-09-06T12:11:32.478Z,348.75
2022-09-06T12:12:32.490Z,343.13
2022-09-06T12:13:32.385Z,326.25
2022-09-06T12:14:32.347Z,315.00
2022-09-06T12:15:32.382Z,315.00
2022-09-06T12:16:38.551Z,326.25
2022-09-06T12:17:32.313Z,343.13
2022-09-06T12:18:32.368Z,348.75
2022-09-06T12:19:32.312Z,348.75
2022-09-06T12:20:32.320Z,331.88
2022-09-06T12:21:32.321Z,315.00
2022-09-06T12:22:32.330Z,298.13
2022-09-06T12:23:32.331Z,286.88
2022-09-06T12:24:32.336Z,286.88
2022-09-06T12:25:32.341Z,286.88
2022-09-06T12:26:32.343Z,292.50
2022-09-06T12:27:32.350Z,303.75
2022-09-06T12:28:32.353Z,309.38
2022-09-06T12:29:32.353Z,320.63
2022-09-06T12:30:32.363Z,320.63
2022-09-06T12:31:32.417Z,326.25
2022-09-06T12:32:36.604Z,326.25
2022-09-06T12:33:32.375Z,337.50
2022-09-06T12:34:32.373Z,348.75
2022-09-06T12:36:32.379Z,360.00
2022-09-06T12:37:32.384Z,354.38
2022-09-06T12:38:32.388Z,348.75
2022-09-06T12:39:32.427Z,354.38
2022-09-06T12:40:32.392Z,348.75
2022-09-06T12:41:32.427Z,354.38
2022-09-06T12:42:32.405Z,365.63
2022-09-06T12:43:32.404Z,371.25
2022-09-06T12:44:32.418Z,365.63
2022-09-06T12:45:32.419Z,365.63
2022-09-06T12:46:32.469Z,376.88
2022-09-06T12:47:32.423Z,388.13
2022-09-06T12:48:32.425Z,405.00
2022-09-06T12:49:32.431Z,421.88
2022-09-06T12:50:32.435Z,433.13
2022-09-06T12:51:32.440Z,433.13
2022-09-06T12:52:32.438Z,433.13
2022-09-06T12:53:32.450Z,444.38
2022-09-06T12:54:32.456Z,455.63
2022-09-06T12:55:32.452Z,466.88
2022-09-06T12:56:32.461Z,478.13
2022-09-06T12:57:32.455Z,500.63
2022-09-06T12:58:32.464Z,517.50
2022-09-06T12:59:32.473Z,528.75
2022-09-06T13:00:32.472Z,540.00
2022-09-06T13:01:32.630Z,562.50
2022-09-06T13:02:32.694Z,568.13
2022-09-06T13:03:32.481Z,585.00
2022-09-06T13:04:32.481Z,596.25
2022-09-06T13:05:32.488Z,590.63
2022-09-06T13:06:32.489Z,590.63
2022-09-06T13:07:32.496Z,601.88
2022-09-06T13:08:32.498Z,607.50
2022-09-06T13:09:32.501Z,607.50
2022-09-06T13:10:32.507Z,607.50
2022-09-06T13:11:32.525Z,607.50
2022-09-06T13:12:32.520Z,607.50
2022-09-06T13:13:32.523Z,607.50
2022-09-06T13:14:32.526Z,607.50
2022-09-06T13:15:32.581Z,607.50
2022-09-06T13:16:32.547Z,607.50
2022-09-06T13:17:32.584Z,601.88
2022-09-06T13:18:32.547Z,596.25
2022-09-06T13:19:32.557Z,585.00
2022-09-06T13:20:32.554Z,579.38
2022-09-06T13:21:32.549Z,579.38